sensor_id;sensor_type;location;lat;lon;timestamp;pressure;altitude;pressure_sealevel;temperature;humidity
60433;BME280;46286;48.098;11.590;2022-12-07T00:01:28;95413.78;;;1.04;100.00
60433;BME280;46286;48.098;11.590;2022-12-07T00:03:56;95410.59;;;1.02;100.00
60433;BME280;46286;48.098;11.590;2022-12-07T00:06:32;95411.34;;;1.09;100.00
60433;BME280;46286;48.098;11.590;2022-12-07T00:08:58;95414.63;;;0.98;100.00
60433;BME280;46286;48.098;11.590;2022-12-07T00:11:24;95411.41;;;1.02;100.00
60433;BME280;46286;48.098;11.590;2022-12-07T00:13:55;95403.66;;;0.96;100.00
60433;BME280;46286;48.098;11.590;2022-12-07T00:16:22;95407.06;;;0.96;100.00
60433;BME280;46286;48.098;11.590;2022-12-07T00:18:48;95403.56;;;1.09;100.00
60433;BME280;46286;48.098;11.590;2022-12-07T00:21:22;95408.59;;;1.04;100.00
60433;BME280;46286;48.098;11.590;2022-12-07T00:23:49;95399.88;;;0.98;100.00
60433;BME280;46286;48.098;11.590;2022-12-07T00:26:18;95395.03;;;1.02;100.00
60433;BME280;46286;48.098;11.590;2022-12-07T00:28:46;95396.63;;;1.03;100.00
60433;BME280;46286;48.098;11.590;2022-12-07T00:31:13;95400.22;;;1.02;100.00
60433;BME280;46286;48.098;11.590;2022-12-07T00:33:39;95403.41;;;1.04;100.00
60433;BME280;46286;48.098;11.590;2022-12-07T00:36:07;95388.59;;;1.11;100.00
60433;BME280;46286;48.098;11.590;2022-12-07T00:38:35;95391.03;;;1.06;100.00
60433;BME280;46286;48.098;11.590;2022-12-07T00:41:02;95396.63;;;1.03;100.00
60433;BME280;46286;48.098;11.590;2022-12-07T00:43:29;95396.06;;;1.01;100.00
60433;BME280;46286;48.098;11.590;2022-12-07T00:45:55;95391.88;;;1.00;100.00
60433;BME280;46286;48.098;11.590;2022-12-07T00:48:21;95399.41;;;1.08;100.00
60433;BME280;46286;48.098;11.590;2022-12-07T00:50:47;95394.31;;;0.95;100.00
60433;BME280;46286;48.098;11.590;2022-12-07T00:53:13;95394.16;;;0.90;100.00
60433;BME280;46286;48.098;11.590;2022-12-07T00:55:38;95397.91;;;0.94;100.00
60433;BME280;46286;48.098;11.590;2022-12-07T00:58:04;95391.78;;;0.88;100.00
60433;BME280;46286;48.098;11.590;2022-12-07T01:00:30;95401.16;;;0.89;100.00
60433;BME280;46286;48.098;11.590;2022-12-07T01:02:56;95399.75;;;0.86;100.00
60433;BME280;46286;48.098;11.590;2022-12-07T01:05:21;95390.41;;;0.85;100.00
60433;BME280;46286;48.098;11.590;2022-12-07T01:07:47;95399.16;;;0.84;100.00
60433;BME280;46286;48.098;11.590;2022-12-07T01:10:13;95394.84;;;0.78;100.00
60433;BME280;46286;48.098;11.590;2022-12-07T01:12:40;95394.41;;;0.81;100.00
60433;BME280;46286;48.098;11.590;2022-12-07T01:15:06;95388.81;;;0.84;100.00
60433;BME280;46286;48.098;11.590;2022-12-07T01:17:32;95385.69;;;0.76;100.00
60433;BME280;46286;48.098;11.590;2022-12-07T01:19:57;95387.81;;;0.85;100.00
60433;BME280;46286;48.098;11.590;2022-12-07T01:22:23;95396.44;;;0.79;100.00
60433;BME280;46286;48.098;11.590;2022-12-07T01:24:49;95397.59;;;0.83;100.00
60433;BME280;46286;48.098;11.590;2022-12-07T01:27:15;95392.41;;;0.83;100.00
60433;BME280;46286;48.098;11.590;2022-12-07T01:29:40;95395.16;;;0.89;100.00
60433;BME280;46286;48.098;11.590;2022-12-07T01:32:07;95393.66;;;0.74;100.00
60433;BME280;46286;48.098;11.590;2022-12-07T01:34:32;95399.38;;;0.83;100.00
60433;BME280;46286;48.098;11.590;2022-12-07T01:36:58;95403.59;;;0.77;100.00
60433;BME280;46286;48.098;11.590;2022-12-07T01:39:23;95406.94;;;0.84;100.00
60433;BME280;46286;48.098;11.590;2022-12-07T01:41:49;95403.59;;;0.77;100.00
60433;BME280;46286;48.098;11.590;2022-12-07T01:44:18;95398.81;;;0.81;100.00
60433;BME280;46286;48.098;11.590;2022-12-07T01:46:55;95403.53;;;0.91;100.00
60433;BME280;46286;48.098;11.590;2022-12-07T01:52:14;95392.81;;;0.80;100.00
60433;BME280;46286;48.098;11.590;2022-12-07T01:54:42;95383.69;;;0.78;100.00
60433;BME280;46286;48.098;11.590;2022-12-07T01:57:09;95392.34;;;0.90;100.00
60433;BME280;46286;48.098;11.590;2022-12-07T01:59:36;95380.47;;;0.82;100.00
60433;BME280;46286;48.098;11.590;2022-12-07T02:02:04;95384.03;;;0.81;100.00
60433;BME280;46286;48.098;11.590;2022-12-07T02:04:32;95384.91;;;0.75;100.00
60433;BME280;46286;48.098;11.590;2022-12-07T02:06:58;95384.47;;;0.78;100.00
60433;BME280;46286;48.098;11.590;2022-12-07T02:09:24;95384.28;;;0.73;100.00
60433;BME280;46286;48.098;11.590;2022-12-07T02:11:50;95382.88;;;0.77;100.00
60433;BME280;46286;48.098;11.590;2022-12-07T02:14:17;95389.47;;;0.73;100.00
60433;BME280;46286;48.098;11.590;2022-12-07T02:16:52;95389.31;;;0.68;100.00
60433;BME280;46286;48.098;11.590;2022-12-07T02:19:28;95382.13;;;0.70;100.00
60433;BME280;46286;48.098;11.590;2022-12-07T02:22:36;95378.53;;;0.71;100.00
60433;BME280;46286;48.098;11.590;2022-12-07T02:27:46;95376.53;;;0.73;100.00
60433;BME280;46286;48.098;11.590;2022-12-07T02:30:18;95368.59;;;0.68;100.00
60433;BME280;46286;48.098;11.590;2022-12-07T02:33:03;95366.25;;;0.60;100.00
60433;BME280;46286;48.098;11.590;2022-12-07T02:35:48;95377.38;;;0.67;100.00
60433;BME280;46286;48.098;11.590;2022-12-07T02:38:39;95384.38;;;0.60;100.00
60433;BME280;46286;48.098;11.590;2022-12-07T02:41:13;95377.78;;;0.64;100.00
60433;BME280;46286;48.098;11.590;2022-12-07T02:43:48;95380.19;;;0.65;100.00
60433;BME280;46286;48.098;11.590;2022-12-07T02:46:20;95365.84;;;0.63;100.00
60433;BME280;46286;48.098;11.590;2022-12-07T02:48:47;95367.00;;;0.67;100.00
60433;BME280;46286;48.098;11.590;2022-12-07T02:51:13;95368.94;;;0.78;100.00
60433;BME280;46286;48.098;11.590;2022-12-07T02:53:40;95365.38;;;0.73;100.00
60433;BME280;46286;48.098;11.590;2022-12-07T02:58:58;95365.41;;;0.66;100.00
60433;BME280;46286;48.098;11.590;2022-12-07T03:07:11;95367.88;;;0.61;100.00
60433;BME280;46286;48.098;11.590;2022-12-07T03:09:56;95362.25;;;0.64;100.00
60433;BME280;46286;48.098;11.590;2022-12-07T03:12:37;95362.09;;;0.59;100.00
60433;BME280;46286;48.098;11.590;2022-12-07T03:15:11;95367.03;;;0.60;100.00
60433;BME280;46286;48.098;11.590;2022-12-07T03:17:40;95361.09;;;0.60;100.00
60433;BME280;46286;48.098;11.590;2022-12-07T03:20:09;95362.69;;;0.61;100.00
60433;BME280;46286;48.098;11.590;2022-12-07T03:22:38;95367.69;;;0.56;100.00
60433;BME280;46286;48.098;11.590;2022-12-07T03:25:08;95363.50;;;0.55;100.00
60433;BME280;46286;48.098;11.590;2022-12-07T03:27:39;95365.16;;;0.49;100.00
60433;BME280;46286;48.098;11.590;2022-12-07T03:30:08;95364.34;;;0.48;100.00
60433;BME280;46286;48.098;11.590;2022-12-07T03:32:43;95364.72;;;0.52;100.00
60433;BME280;46286;48.098;11.590;2022-12-07T03:35:15;95367.16;;;0.47;100.00
60433;BME280;46286;48.098;11.590;2022-12-07T03:37:47;95359.59;;;0.45;100.00
60433;BME280;46286;48.098;11.590;2022-12-07T03:40:32;95360.75;;;0.49;100.00
60433;BME280;46286;48.098;11.590;2022-12-07T03:42:59;95355.59;;;0.49;100.00
60433;BME280;46286;48.098;11.590;2022-12-07T03:45:55;95353.97;;;0.48;100.00
60433;BME280;46286;48.098;11.590;2022-12-07T03:48:50;95353.84;;;0.43;100.00
60433;BME280;46286;48.098;11.590;2022-12-07T03:51:29;95356.16;;;0.51;100.00
60433;BME280;46286;48.098;11.590;2022-12-07T03:54:05;95347.97;;;0.55;100.00
60433;BME280;46286;48.098;11.590;2022-12-07T03:56:35;95356.34;;;0.57;100.00
60433;BME280;46286;48.098;11.590;2022-12-07T03:59:01;95354.31;;;0.59;100.00
60433;BME280;46286;48.098;11.590;2022-12-07T04:01:27;95351.47;;;0.67;100.00
60433;BME280;46286;48.098;11.590;2022-12-07T04:03:52;95345.13;;;0.63;100.00
60433;BME280;46286;48.098;11.590;2022-12-07T04:06:18;95343.91;;;0.65;100.00
60433;BME280;46286;48.098;11.590;2022-12-07T04:08:44;95345.13;;;0.63;100.00
60433;BME280;46286;48.098;11.590;2022-12-07T04:11:09;95342.97;;;0.60;100.00
60433;BME280;46286;48.098;11.590;2022-12-07T04:13:35;95347.56;;;0.58;100.00
60433;BME280;46286;48.098;11.590;2022-12-07T04:16:20;95348.53;;;0.63;100.00
60433;BME280;46286;48.098;11.590;2022-12-07T04:18:46;95345.44;;;0.73;100.00
60433;BME280;46286;48.098;11.590;2022-12-07T04:21:11;95344.88;;;0.71;100.00
60433;BME280;46286;48.098;11.590;2022-12-07T04:23:37;95342.91;;;0.66;100.00
60433;BME280;46286;48.098;11.590;2022-12-07T04:26:02;95355.06;;;0.66;100.00
60433;BME280;46286;48.098;11.590;2022-12-07T04:28:28;95346.72;;;0.64;100.00
60433;BME280;46286;48.098;11.590;2022-12-07T04:30:53;95348.31;;;0.65;100.00
60433;BME280;46286;48.098;11.590;2022-12-07T04:33:19;95345.53;;;0.60;100.00
60433;BME280;46286;48.098;11.590;2022-12-07T04:35:44;95348.13;;;0.60;100.00
60433;BME280;46286;48.098;11.590;2022-12-07T04:38:10;95349.94;;;0.59;100.00
60433;BME280;46286;48.098;11.590;2022-12-07T04:40:35;95353.28;;;0.66;100.00
60433;BME280;46286;48.098;11.590;2022-12-07T04:43:01;95345.72;;;0.65;100.00
60433;BME280;46286;48.098;11.590;2022-12-07T04:45:26;95347.97;;;0.55;100.00
60433;BME280;46286;48.098;11.590;2022-12-07T04:47:52;95349.19;;;0.52;100.00
60433;BME280;46286;48.098;11.590;2022-12-07T04:50:17;95351.16;;;0.57;100.00
60433;BME280;46286;48.098;11.590;2022-12-07T04:52:43;95344.38;;;0.56;100.00
60433;BME280;46286;48.098;11.590;2022-12-07T04:55:08;95348.31;;;0.65;100.00
60433;BME280;46286;48.098;11.590;2022-12-07T04:57:34;95344.13;;;0.64;100.00
60433;BME280;46286;48.098;11.590;2022-12-07T04:59:59;95347.88;;;0.68;100.00
60433;BME280;46286;48.098;11.590;2022-12-07T05:02:25;95348.13;;;0.60;100.00
60433;BME280;46286;48.098;11.590;2022-12-07T05:04:50;95352.56;;;0.52;100.00
60433;BME280;46286;48.098;11.590;2022-12-07T05:07:16;95346.97;;;0.56;100.00
60433;BME280;46286;48.098;11.590;2022-12-07T05:09:41;95353.13;;;0.55;100.00
60433;BME280;46286;48.098;11.590;2022-12-07T05:12:07;95357.31;;;0.56;100.00
60433;BME280;46286;48.098;11.590;2022-12-07T05:14:32;95364.34;;;0.48;100.00
60433;BME280;46286;48.098;11.590;2022-12-07T05:16:58;95358.59;;;0.46;100.00
60433;BME280;46286;48.098;11.590;2022-12-07T05:19:23;95358.59;;;0.46;100.00
60433;BME280;46286;48.098;11.590;2022-12-07T05:21:49;95358.41;;;0.41;100.00
60433;BME280;46286;48.098;11.590;2022-12-07T05:24:15;95357.41;;;0.42;100.00
60433;BME280;46286;48.098;11.590;2022-12-07T05:26:42;95353.22;;;0.41;100.00
60433;BME280;46286;48.098;11.590;2022-12-07T05:29:11;95353.66;;;0.38;100.00
60433;BME280;46286;48.098;11.590;2022-12-07T05:31:37;95357.25;;;0.37;100.00
60433;BME280;46286;48.098;11.590;2022-12-07T05:34:03;95344.16;;;0.32;100.00
60433;BME280;46286;48.098;11.590;2022-12-07T05:36:29;95342.72;;;0.36;100.00
60433;BME280;46286;48.098;11.590;2022-12-07T05:38:56;95352.06;;;0.37;100.00
60433;BME280;46286;48.098;11.590;2022-12-07T05:41:21;95344.84;;;0.46;100.00
60433;BME280;46286;48.098;11.590;2022-12-07T05:44:05;95344.91;;;0.39;100.00
60433;BME280;46286;48.098;11.590;2022-12-07T05:46:32;95343.13;;;0.33;100.00
60433;BME280;46286;48.098;11.590;2022-12-07T05:48:57;95351.63;;;0.40;100.00
60433;BME280;46286;48.098;11.590;2022-12-07T05:51:23;95358.00;;;0.44;100.00
60433;BME280;46286;48.098;11.590;2022-12-07T05:53:48;95357.22;;;0.44;100.00
60433;BME280;46286;48.098;11.590;2022-12-07T05:56:14;95354.84;;;0.36;100.00
60433;BME280;46286;48.098;11.590;2022-12-07T05:58:40;95355.06;;;0.34;100.00
60433;BME280;46286;48.098;11.590;2022-12-07T06:01:24;95352.13;;;0.30;100.00
60433;BME280;46286;48.098;11.590;2022-12-07T06:03:49;95360.09;;;0.29;100.00
60433;BME280;46286;48.098;11.590;2022-12-07T06:06:15;95359.06;;;0.30;100.00
60433;BME280;46286;48.098;11.590;2022-12-07T06:08:41;95364.41;;;0.42;100.00
60433;BME280;46286;48.098;11.590;2022-12-07T06:11:06;95361.25;;;0.33;100.00
60433;BME280;46286;48.098;11.590;2022-12-07T06:13:50;95356.06;;;0.33;100.00
60433;BME280;46286;48.098;11.590;2022-12-07T06:16:16;95365.63;;;0.32;100.00
60433;BME280;46286;48.098;11.590;2022-12-07T06:18:41;95360.47;;;0.32;100.00
60433;BME280;46286;48.098;11.590;2022-12-07T06:21:07;95363.69;;;0.28;100.00
60433;BME280;46286;48.098;11.590;2022-12-07T06:23:32;95366.84;;;0.30;100.00
60433;BME280;46286;48.098;11.590;2022-12-07T06:25:58;95370.03;;;0.32;100.00
60433;BME280;46286;48.098;11.590;2022-12-07T06:28:23;95371.03;;;0.31;100.00
60433;BME280;46286;48.098;11.590;2022-12-07T06:30:57;95376.63;;;0.28;100.00
60433;BME280;46286;48.098;11.590;2022-12-07T06:33:22;95370.03;;;0.32;100.00
60433;BME280;46286;48.098;11.590;2022-12-07T06:35:48;95364.88;;;0.25;100.00
60433;BME280;46286;48.098;11.590;2022-12-07T06:38:13;95372.44;;;0.27;100.00
60433;BME280;46286;48.098;11.590;2022-12-07T06:40:39;95378.03;;;0.24;100.00
60433;BME280;46286;48.098;11.590;2022-12-07T06:43:04;95369.44;;;0.30;100.00
60433;BME280;46286;48.098;11.590;2022-12-07T06:45:30;95367.69;;;0.24;100.00
60433;BME280;46286;48.098;11.590;2022-12-07T06:47:55;95370.25;;;0.24;100.00
60433;BME280;46286;48.098;11.590;2022-12-07T06:50:21;95379.78;;;0.30;100.00
60433;BME280;46286;48.098;11.590;2022-12-07T06:52:46;95375.22;;;0.32;100.00
60433;BME280;46286;48.098;11.590;2022-12-07T06:55:12;95375.63;;;0.29;100.00
60433;BME280;46286;48.098;11.590;2022-12-07T06:57:37;95376.03;;;0.26;100.00
60433;BME280;46286;48.098;11.590;2022-12-07T07:00:03;95378.03;;;0.24;100.00
60433;BME280;46286;48.098;11.590;2022-12-07T07:02:29;95383.22;;;0.24;100.00
60433;BME280;46286;48.098;11.590;2022-12-07T07:04:55;95393.16;;;0.27;100.00
60433;BME280;46286;48.098;11.590;2022-12-07T07:07:20;95384.81;;;0.25;100.00
60433;BME280;46286;48.098;11.590;2022-12-07T07:09:46;95387.97;;;0.27;100.00
60433;BME280;46286;48.098;11.590;2022-12-07T07:12:11;95386.38;;;0.26;100.00
60433;BME280;46286;48.098;11.590;2022-12-07T07:14:37;95383.22;;;0.24;100.00
60433;BME280;46286;48.098;11.590;2022-12-07T07:17:02;95379.63;;;0.25;100.00
60433;BME280;46286;48.098;11.590;2022-12-07T07:19:28;95385.59;;;0.25;100.00
60433;BME280;46286;48.098;11.590;2022-12-07T07:21:53;95393.16;;;0.27;100.00
60433;BME280;46286;48.098;11.590;2022-12-07T07:24:19;95387.38;;;0.25;100.00
60433;BME280;46286;48.098;11.590;2022-12-07T07:26:44;95390.56;;;0.27;100.00
60433;BME280;46286;48.098;11.590;2022-12-07T07:29:10;95397.94;;;0.23;100.00
60433;BME280;46286;48.098;11.590;2022-12-07T07:31:35;95403.91;;;0.24;100.00
60433;BME280;46286;48.098;11.590;2022-12-07T07:34:02;95405.09;;;0.28;100.00
60433;BME280;46286;48.098;11.590;2022-12-07T07:36:28;95403.25;;;0.35;100.00
60433;BME280;46286;48.098;11.590;2022-12-07T07:38:54;95401.91;;;0.26;100.00
60433;BME280;46286;48.098;11.590;2022-12-07T07:41:19;95398.56;;;0.19;100.00
60433;BME280;46286;48.098;11.590;2022-12-07T07:43:45;95408.91;;;0.19;100.00
60433;BME280;46286;48.098;11.590;2022-12-07T07:46:10;95397.22;;;0.09;100.00
60433;BME280;46286;48.098;11.590;2022-12-07T07:48:36;95411.09;;;0.22;100.00
60433;BME280;46286;48.098;11.590;2022-12-07T07:51:05;95411.91;;;0.15;100.00
60433;BME280;46286;48.098;11.590;2022-12-07T07:53:32;95412.50;;;0.17;100.00
60433;BME280;46286;48.098;11.590;2022-12-07T07:55:57;95407.50;;;0.23;100.00
60433;BME280;46286;48.098;11.590;2022-12-07T07:58:23;95407.34;;;0.11;100.00
60433;BME280;46286;48.098;11.590;2022-12-07T08:00:49;95407.97;;;0.06;100.00
60433;BME280;46286;48.098;11.590;2022-12-07T08:03:15;95416.50;;;0.13;100.00
60433;BME280;46286;48.098;11.590;2022-12-07T08:05:40;95411.97;;;0.02;100.00
60433;BME280;46286;48.098;11.590;2022-12-07T08:08:06;95412.53;;;0.04;100.00
60433;BME280;46286;48.098;11.590;2022-12-07T08:10:32;95418.31;;;0.06;100.00
60433;BME280;46286;48.098;11.590;2022-12-07T08:12:58;95405.16;;;0.14;100.00
60433;BME280;46286;48.098;11.590;2022-12-07T08:15:44;95409.53;;;0.14;100.00
60433;BME280;46286;48.098;11.590;2022-12-07T08:18:11;95413.50;;;0.16;100.00
60433;BME280;46286;48.098;11.590;2022-12-07T08:20:38;95411.50;;;0.19;100.00
60433;BME280;46286;48.098;11.590;2022-12-07T08:23:06;95408.69;;;0.20;100.00
60433;BME280;46286;48.098;11.590;2022-12-07T08:25:33;95411.69;;;0.24;100.00
60433;BME280;46286;48.098;11.590;2022-12-07T08:27:58;95419.44;;;0.24;100.00
60433;BME280;46286;48.098;11.590;2022-12-07T08:30:28;95417.09;;;0.15;100.00
60433;BME280;46286;48.098;11.590;2022-12-07T08:32:53;95419.84;;;0.21;100.00
60433;BME280;46286;48.098;11.590;2022-12-07T08:35:19;95409.50;;;0.21;100.00
60433;BME280;46286;48.098;11.590;2022-12-07T08:37:44;95410.84;;;0.30;100.00
60433;BME280;46286;48.098;11.590;2022-12-07T08:40:12;95412.63;;;0.36;100.00
60433;BME280;46286;48.098;11.590;2022-12-07T08:42:42;95419.78;;;0.34;100.00
60433;BME280;46286;48.098;11.590;2022-12-07T08:45:12;95418.94;;;0.40;100.00
60433;BME280;46286;48.098;11.590;2022-12-07T08:47:49;95416.97;;;0.42;100.00
60433;BME280;46286;48.098;11.590;2022-12-07T08:50:16;95414.94;;;0.44;100.00
60433;BME280;46286;48.098;11.590;2022-12-07T08:52:42;95407.78;;;0.46;100.00
60433;BME280;46286;48.098;11.590;2022-12-07T08:55:10;95412.53;;;0.49;100.00
60433;BME280;46286;48.098;11.590;2022-12-07T08:57:37;95413.72;;;0.54;100.00
60433;BME280;46286;48.098;11.590;2022-12-07T09:00:04;95422.25;;;0.61;100.00
60433;BME280;46286;48.098;11.590;2022-12-07T09:02:31;95426.81;;;0.59;100.00
60433;BME280;46286;48.098;11.590;2022-12-07T09:04:56;95426.44;;;0.62;100.00
60433;BME280;46286;48.098;11.590;2022-12-07T09:07:22;95418.38;;;0.70;100.00
60433;BME280;46286;48.098;11.590;2022-12-07T09:09:47;95419.97;;;0.78;100.00
60433;BME280;46286;48.098;11.590;2022-12-07T09:12:13;95425.25;;;0.58;100.00
60433;BME280;46286;48.098;11.590;2022-12-07T09:14:38;95423.97;;;0.74;100.00
60433;BME280;46286;48.098;11.590;2022-12-07T09:17:09;95421.16;;;0.75;100.00
60433;BME280;46286;48.098;11.590;2022-12-07T09:19:34;95417.75;;;0.75;100.00
60433;BME280;46286;48.098;11.590;2022-12-07T09:22:00;95416.13;;;0.80;100.00
60433;BME280;46286;48.098;11.590;2022-12-07T09:24:26;95417.50;;;0.83;100.00
60433;BME280;46286;48.098;11.590;2022-12-07T09:26:52;95409.53;;;0.84;100.00
60433;BME280;46286;48.098;11.590;2022-12-07T09:29:17;95410.97;;;1.06;100.00
60433;BME280;46286;48.098;11.590;2022-12-07T09:31:43;95405.84;;;0.99;100.00
60433;BME280;46286;48.098;11.590;2022-12-07T09:34:08;95403.78;;;1.08;100.00
60433;BME280;46286;48.098;11.590;2022-12-07T09:36:34;95418.13;;;1.10;100.00
60433;BME280;46286;48.098;11.590;2022-12-07T09:38:59;95413.66;;;1.17;100.00
60433;BME280;46286;48.098;11.590;2022-12-07T09:41:27;95410.06;;;1.18;100.00
60433;BME280;46286;48.098;11.590;2022-12-07T09:44:04;95396.78;;;1.33;100.00
60433;BME280;46286;48.098;11.590;2022-12-07T09:46:34;95386.78;;;1.37;100.00
60433;BME280;46286;48.098;11.590;2022-12-07T09:49:02;95389.09;;;1.45;100.00
60433;BME280;46286;48.098;11.590;2022-12-07T09:51:28;95394.59;;;1.55;100.00
60433;BME280;46286;48.098;11.590;2022-12-07T09:53:56;95387.09;;;1.66;100.00
60433;BME280;46286;48.098;11.590;2022-12-07T09:56:23;95386.81;;;1.74;100.00
60433;BME280;46286;48.098;11.590;2022-12-07T09:58:50;95389.97;;;1.58;100.00
60433;BME280;46286;48.098;11.590;2022-12-07T10:01:19;95388.03;;;1.71;100.00
60433;BME280;46286;48.098;11.590;2022-12-07T10:03:50;95390.13;;;1.81;100.00
60433;BME280;46286;48.098;11.590;2022-12-07T10:06:17;95382.63;;;1.73;100.00
60433;BME280;46286;48.098;11.590;2022-12-07T10:08:43;95390.69;;;1.83;100.00
60433;BME280;46286;48.098;11.590;2022-12-07T10:11:09;95384.78;;;1.76;100.00
60433;BME280;46286;48.098;11.590;2022-12-07T10:13:38;95383.34;;;1.99;100.00
60433;BME280;46286;48.098;11.590;2022-12-07T10:16:04;95381.63;;;1.93;100.00
60433;BME280;46286;48.098;11.590;2022-12-07T10:18:36;95380.34;;;2.14;100.00
60433;BME280;46286;48.098;11.590;2022-12-07T10:23:36;95375.97;;;2.14;100.00
60433;BME280;46286;48.098;11.590;2022-12-07T10:26:34;95375.63;;;2.41;100.00
60433;BME280;46286;48.098;11.590;2022-12-07T10:29:16;95370.88;;;2.38;100.00
60433;BME280;46286;48.098;11.590;2022-12-07T10:31:50;95375.09;;;2.51;100.00
60433;BME280;46286;48.098;11.590;2022-12-07T10:34:23;95380.81;;;2.41;100.00
60433;BME280;46286;48.098;11.590;2022-12-07T10:36:51;95374.84;;;2.52;100.00
60433;BME280;46286;48.098;11.590;2022-12-07T10:39:19;95377.91;;;3.03;100.00
60433;BME280;46286;48.098;11.590;2022-12-07T10:41:55;95380.19;;;2.57;100.00
60433;BME280;46286;48.098;11.590;2022-12-07T10:44:30;95379.06;;;2.53;100.00
60433;BME280;46286;48.098;11.590;2022-12-07T10:55:40;95366.03;;;2.95;100.00
60433;BME280;46286;48.098;11.590;2022-12-07T11:06:35;95347.44;;;3.75;100.00
60433;BME280;46286;48.098;11.590;2022-12-07T11:09:34;95338.09;;;3.15;100.00
60433;BME280;46286;48.098;11.590;2022-12-07T11:15:13;95331.06;;;5.51;100.00
60433;BME280;46286;48.098;11.590;2022-12-07T11:18:02;95329.78;;;5.14;100.00
60433;BME280;46286;48.098;11.590;2022-12-07T11:20:39;95338.31;;;4.59;100.00
60433;BME280;46286;48.098;11.590;2022-12-07T11:37:33;95323.16;;;4.56;100.00
60433;BME280;46286;48.098;11.590;2022-12-07T11:40:20;95310.06;;;5.24;100.00
60433;BME280;46286;48.098;11.590;2022-12-07T11:43:30;95308.25;;;5.63;100.00
60433;BME280;46286;48.098;11.590;2022-12-07T11:46:04;95309.88;;;5.92;100.00
60433;BME280;46286;48.098;11.590;2022-12-07T11:48:49;95311.81;;;5.18;100.00
60433;BME280;46286;48.098;11.590;2022-12-07T11:51:20;95306.19;;;4.87;100.00
60433;BME280;46286;48.098;11.590;2022-12-07T11:53:49;95303.84;;;4.40;100.00
60433;BME280;46286;48.098;11.590;2022-12-07T11:56:21;95305.72;;;4.27;100.00
60433;BME280;46286;48.098;11.590;2022-12-07T12:03:45;95292.69;;;4.27;100.00
60433;BME280;46286;48.098;11.590;2022-12-07T12:06:12;95290.19;;;3.75;100.00
60433;BME280;46286;48.098;11.590;2022-12-07T12:08:43;95285.97;;;3.45;100.00
60433;BME280;46286;48.098;11.590;2022-12-07T12:11:18;95283.72;;;3.37;100.00
60433;BME280;46286;48.098;11.590;2022-12-07T12:22:28;95270.00;;;3.82;100.00
60433;BME280;46286;48.098;11.590;2022-12-07T12:24:58;95266.94;;;4.14;100.00
60433;BME280;46286;48.098;11.590;2022-12-07T12:27:45;95263.19;;;3.93;100.00
60433;BME280;46286;48.098;11.590;2022-12-07T12:30:30;95268.34;;;3.76;100.00
60433;BME280;46286;48.098;11.590;2022-12-07T12:33:14;95267.59;;;3.63;100.00
60433;BME280;46286;48.098;11.590;2022-12-07T12:35:42;95270.38;;;3.45;100.00
60433;BME280;46286;48.098;11.590;2022-12-07T12:38:26;95267.38;;;3.53;100.00
60433;BME280;46286;48.098;11.590;2022-12-07T12:40:52;95269.22;;;3.53;100.00
60433;BME280;46286;48.098;11.590;2022-12-07T12:51:52;95263.22;;;3.40;100.00
60433;BME280;46286;48.098;11.590;2022-12-07T12:57:07;95256.59;;;3.21;100.00
60433;BME280;46286;48.098;11.590;2022-12-07T12:59:36;95255.44;;;3.28;100.00
60433;BME280;46286;48.098;11.590;2022-12-07T13:04:56;95254.78;;;3.21;100.00
60433;BME280;46286;48.098;11.590;2022-12-07T13:12:57;95253.00;;;3.10;100.00
60433;BME280;46286;48.098;11.590;2022-12-07T13:26:18;95247.16;;;2.79;100.00
60433;BME280;46286;48.098;11.590;2022-12-07T13:29:13;95234.94;;;2.68;100.00
60433;BME280;46286;48.098;11.590;2022-12-07T13:31:54;95236.97;;;2.66;100.00
60433;BME280;46286;48.098;11.590;2022-12-07T13:34:34;95236.41;;;2.64;100.00
60433;BME280;46286;48.098;11.590;2022-12-07T13:37:02;95240.69;;;2.70;100.00
60433;BME280;46286;48.098;11.590;2022-12-07T13:39:34;95244.56;;;2.67;100.00
60433;BME280;46286;48.098;11.590;2022-12-07T13:42:08;95243.50;;;2.56;100.00
60433;BME280;46286;48.098;11.590;2022-12-07T13:44:40;95243.66;;;2.62;100.00
60433;BME280;46286;48.098;11.590;2022-12-07T13:47:12;95241.94;;;2.55;100.00
60433;BME280;46286;48.098;11.590;2022-12-07T13:49:47;95238.78;;;2.53;100.00
60433;BME280;46286;48.098;11.590;2022-12-07T13:52:26;95236.97;;;2.54;100.00
60433;BME280;46286;48.098;11.590;2022-12-07T13:55:01;95233.56;;;2.53;100.00
60433;BME280;46286;48.098;11.590;2022-12-07T13:57:29;95230.84;;;2.60;100.00
60433;BME280;46286;48.098;11.590;2022-12-07T13:59:56;95233.13;;;2.56;100.00
60433;BME280;46286;48.098;11.590;2022-12-07T14:02:27;95232.66;;;2.59;100.00
60433;BME280;46286;48.098;11.590;2022-12-07T14:08:01;95234.34;;;2.42;100.00
60433;BME280;46286;48.098;11.590;2022-12-07T14:18:48;95234.88;;;2.20;100.00
60433;BME280;46286;48.098;11.590;2022-12-07T14:21:16;95232.84;;;2.22;100.00
60433;BME280;46286;48.098;11.590;2022-12-07T14:23:43;95233.66;;;2.23;100.00
60433;BME280;46286;48.098;11.590;2022-12-07T14:26:20;95235.56;;;2.28;100.00
60433;BME280;46286;48.098;11.590;2022-12-07T14:28:46;95235.13;;;2.31;100.00
60433;BME280;46286;48.098;11.590;2022-12-07T14:33:38;95229.47;;;2.34;100.00
60433;BME280;46286;48.098;11.590;2022-12-07T14:36:04;95232.50;;;2.19;100.00
60433;BME280;46286;48.098;11.590;2022-12-07T14:38:30;95226.88;;;2.22;100.00
60433;BME280;46286;48.098;11.590;2022-12-07T14:40:56;95230.31;;;2.04;100.00
60433;BME280;46286;48.098;11.590;2022-12-07T14:43:41;95229.63;;;1.97;100.00
60433;BME280;46286;48.098;11.590;2022-12-07T14:46:08;95230.06;;;1.94;100.00
60433;BME280;46286;48.098;11.590;2022-12-07T14:48:34;95232.72;;;1.75;100.00
60433;BME280;46286;48.098;11.590;2022-12-07T14:51:00;95237.66;;;1.65;100.00